createdAt,value
2018-09-17T00:01:40.702Z,99.60
2018-09-17T00:04:10.280Z,99.90
2018-09-17T00:06:40.574Z,99.90
2018-09-17T00:09:12.672Z,99.90
2018-09-17T00:11:42.384Z,99.90
2018-09-17T00:14:11.998Z,99.90
2018-09-17T00:16:41.828Z,99.90
2018-09-17T00:19:11.542Z,99.90
2018-09-17T00:21:41.068Z,99.90
2018-09-17T00:24:10.630Z,99.90
2018-09-17T00:26:40.565Z,99.90
2018-09-17T00:29:10.268Z,99.90
2018-09-17T00:31:40.081Z,99.90
2018-09-17T00:34:09.564Z,99.90
2018-09-17T00:36:39.288Z,99.90
2018-09-17T00:39:12.414Z,99.90
2018-09-17T00:41:42.341Z,99.90
2018-09-17T00:44:12.190Z,99.90
2018-09-17T00:46:41.752Z,99.90
2018-09-17T00:49:11.925Z,99.90
2018-09-17T00:51:41.462Z,99.90
2018-09-17T00:54:11.414Z,99.90
2018-09-17T00:56:41.040Z,99.90
2018-09-17T00:59:11.077Z,99.90
2018-09-17T01:01:40.887Z,99.90
2018-09-17T01:04:10.860Z,99.90
2018-09-17T01:06:40.805Z,99.90
2018-09-17T01:09:14.392Z,99.90
2018-09-17T01:11:43.950Z,99.90
2018-09-17T01:14:13.981Z,99.90
2018-09-17T01:16:43.551Z,99.90
2018-09-17T01:19:13.109Z,99.90
2018-09-17T01:21:42.698Z,99.90
2018-09-17T01:24:12.266Z,99.90
2018-09-17T01:26:44.975Z,99.90
2018-09-17T01:29:14.440Z,99.90
2018-09-17T01:31:44.194Z,99.90
2018-09-17T01:34:13.872Z,99.90
2018-09-17T01:36:43.518Z,99.90
2018-09-17T01:39:13.454Z,99.90
2018-09-17T01:41:43.210Z,99.90
2018-09-17T01:44:12.744Z,99.90
2018-09-17T01:46:42.676Z,99.90
2018-09-17T01:49:12.225Z,99.90
2018-09-17T01:51:42.206Z,99.90
2018-09-17T01:54:13.213Z,99.90
2018-09-17T01:56:42.768Z,99.90
2018-09-17T01:59:12.447Z,99.90
2018-09-17T02:01:42.382Z,99.90
2018-09-17T02:04:12.945Z,99.90
2018-09-17T02:06:42.502Z,99.90
2018-09-17T02:09:12.168Z,99.90
2018-09-17T02:11:41.764Z,99.90
2018-09-17T02:14:11.406Z,99.90
2018-09-17T02:16:41.083Z,99.90
2018-09-17T02:19:10.553Z,99.90
2018-09-17T02:21:40.233Z,99.90
2018-09-17T02:24:09.744Z,99.90
2018-09-17T02:26:39.561Z,99.90
2018-09-17T02:29:08.976Z,99.90
2018-09-17T02:31:38.723Z,99.90
2018-09-17T02:34:09.053Z,99.90
2018-09-17T02:36:38.695Z,99.90
2018-09-17T02:39:09.121Z,99.90
2018-09-17T02:41:38.643Z,99.90
2018-09-17T02:44:08.266Z,99.90
2018-09-17T02:46:38.013Z,99.90
2018-09-17T02:49:07.573Z,99.90
2018-09-17T02:51:37.135Z,99.90
2018-09-17T02:54:06.730Z,99.90
2018-09-17T02:56:36.195Z,99.90
2018-09-17T02:59:06.001Z,99.90
2018-09-17T03:01:35.656Z,99.90
2018-09-17T03:04:05.343Z,99.90
2018-09-17T03:06:35.824Z,99.90
2018-09-17T03:09:07.730Z,99.90
2018-09-17T03:11:37.415Z,99.90
2018-09-17T03:14:07.656Z,99.90
2018-09-17T03:16:53.736Z,99.90
2018-09-17T03:19:23.439Z,99.90
2018-09-17T03:21:53.408Z,99.90
2018-09-17T03:24:23.055Z,99.90
2018-09-17T03:26:53.136Z,99.90
2018-09-17T03:29:22.840Z,99.90
2018-09-17T03:31:52.862Z,99.90
2018-09-17T03:34:23.200Z,99.90
2018-09-17T03:36:53.240Z,99.90
2018-09-17T03:39:22.819Z,99.90
2018-09-17T03:41:59.191Z,99.90
2018-09-17T03:44:28.692Z,99.90
2018-09-17T03:46:58.440Z,99.90
2018-09-17T03:49:28.741Z,99.90
2018-09-17T03:51:58.253Z,99.90
2018-09-17T03:54:27.841Z,99.90
2018-09-17T03:56:57.384Z,99.90
2018-09-17T03:59:28.704Z,99.90
2018-09-17T04:01:58.219Z,99.90
2018-09-17T04:04:27.900Z,99.90
2018-09-17T04:06:57.403Z,99.90
2018-09-17T04:09:26.980Z,99.90
2018-09-17T04:11:56.603Z,99.90
2018-09-17T04:14:26.245Z,99.90
2018-09-17T04:16:57.130Z,99.90
2018-09-17T04:19:26.684Z,99.90
2018-09-17T04:21:57.156Z,99.90
2018-09-17T04:24:26.718Z,99.90
2018-09-17T04:26:56.370Z,99.90
2018-09-17T04:29:26.456Z,99.90
2018-09-17T04:31:56.128Z,99.90
2018-09-17T04:34:25.721Z,99.90
2018-09-17T04:36:55.406Z,99.90
2018-09-17T04:39:26.283Z,99.90
2018-09-17T04:41:55.844Z,99.90
2018-09-17T04:44:25.430Z,99.90
2018-09-17T04:46:55.193Z,99.90
2018-09-17T04:49:24.757Z,99.90
2018-09-17T04:51:54.467Z,99.90
2018-09-17T04:54:24.276Z,99.90
2018-09-17T04:56:53.822Z,99.90
2018-09-17T04:59:23.485Z,99.90
2018-09-17T05:01:52.939Z,99.90
2018-09-17T05:04:22.615Z,99.90
2018-09-17T05:06:52.300Z,99.90
2018-09-17T05:09:22.047Z,99.90
2018-09-17T05:11:51.633Z,99.90
2018-09-17T05:14:21.365Z,99.90
2018-09-17T05:16:51.057Z,99.90
2018-09-17T05:19:20.600Z,99.90
2018-09-17T05:21:50.915Z,99.90
2018-09-17T05:24:20.661Z,99.90
2018-09-17T05:26:50.372Z,99.90
2018-09-17T05:29:19.865Z,99.90
2018-09-17T05:31:49.407Z,99.90
2018-09-17T05:34:18.957Z,99.90
2018-09-17T05:36:49.273Z,99.90
2018-09-17T05:39:19.046Z,99.90
2018-09-17T05:41:49.639Z,99.90
2018-09-17T05:44:19.315Z,99.90
2018-09-17T05:46:48.893Z,99.90
2018-09-17T05:49:18.588Z,99.90
2018-09-17T05:51:48.118Z,99.90
2018-09-17T05:54:17.820Z,99.90
2018-09-17T05:56:47.896Z,99.90
2018-09-17T05:59:17.572Z,99.90
2018-09-17T06:01:47.128Z,99.90
2018-09-17T06:04:16.752Z,99.90
2018-09-17T06:06:46.399Z,99.90
2018-09-17T06:09:18.993Z,99.90
2018-09-17T06:11:48.732Z,99.90
2018-09-17T06:14:18.269Z,99.90
2018-09-17T06:16:48.007Z,99.90
2018-09-17T06:19:17.544Z,99.90
2018-09-17T06:21:47.147Z,99.90
2018-09-17T06:24:16.828Z,99.90
2018-09-17T06:26:47.540Z,99.90
2018-09-17T06:29:17.574Z,99.90
2018-09-17T06:31:47.747Z,99.90
2018-09-17T06:34:17.285Z,99.90
2018-09-17T06:36:47.009Z,99.90
2018-09-17T06:39:16.953Z,99.90
2018-09-17T06:41:46.796Z,95.70
2018-09-17T06:44:16.881Z,84.10
2018-09-17T06:46:46.867Z,71.50
2018-09-17T06:49:17.024Z,59.80
2018-09-17T06:51:48.135Z,53.60
2018-09-17T06:54:17.751Z,47.90
2018-09-17T06:56:47.246Z,43.60
2018-09-17T06:59:16.945Z,41.30
2018-09-17T07:01:46.772Z,38.10
2018-09-17T07:04:16.248Z,36.10
2018-09-17T07:06:45.893Z,36.20
2018-09-17T07:09:15.604Z,34.90
2018-09-17T07:11:45.839Z,35.50
2018-09-17T07:14:15.633Z,34.40
2018-09-17T07:16:45.248Z,34.30
2018-09-17T07:19:15.261Z,33.10
2018-09-17T07:21:44.967Z,33.80
2018-09-17T07:24:14.458Z,33.40
2018-09-17T07:26:44.176Z,33.40
2018-09-17T07:29:13.887Z,32.60
2018-09-17T07:31:43.730Z,33.00
2018-09-17T07:34:13.507Z,32.10
2018-09-17T07:36:43.195Z,30.70
2018-09-17T07:39:13.363Z,30.00
2018-09-17T07:41:42.859Z,29.40
2018-09-17T07:44:13.347Z,29.20
2018-09-17T07:46:43.042Z,29.30
2018-09-17T07:49:12.700Z,29.50
2018-09-17T07:51:42.227Z,29.70
2018-09-17T07:54:11.808Z,29.80
2018-09-17T07:56:41.496Z,29.90
2018-09-17T07:59:11.115Z,30.70
2018-09-17T08:01:40.846Z,31.10
2018-09-17T08:04:10.694Z,31.00
2018-09-17T08:06:40.726Z,30.70
2018-09-17T08:09:14.009Z,30.40
2018-09-17T08:11:44.801Z,29.90
2018-09-17T08:14:16.479Z,29.40
2018-09-17T08:16:46.036Z,29.50
2018-09-17T08:19:15.790Z,29.10
2018-09-17T08:21:47.427Z,28.90
2018-09-17T08:24:20.989Z,28.70
2018-09-17T08:26:50.437Z,28.50
2018-09-17T08:29:20.146Z,28.80
2018-09-17T08:31:50.476Z,27.70
2018-09-17T08:34:20.208Z,26.30
2018-09-17T08:36:49.760Z,25.70
2018-09-17T08:39:19.504Z,25.20
2018-09-17T08:41:49.419Z,25.20
2018-09-17T08:44:19.078Z,24.90
2018-09-17T08:46:48.900Z,24.90
2018-09-17T08:49:18.587Z,24.80
2018-09-17T08:51:48.724Z,25.50
2018-09-17T08:54:18.566Z,25.20
2018-09-17T08:56:53.133Z,24.70
2018-09-17T08:59:27.848Z,24.80
2018-09-17T09:02:02.696Z,25.90
2018-09-17T09:04:37.400Z,25.10
2018-09-17T09:08:10.833Z,25.30
2018-09-17T09:10:45.824Z,24.80
2018-09-17T09:13:24.288Z,24.50
2018-09-17T09:15:54.117Z,24.60
2018-09-17T09:18:23.876Z,24.90
2018-09-17T09:20:53.549Z,24.40
2018-09-17T09:23:23.287Z,25.30
2018-09-17T09:25:52.822Z,25.00
2018-09-17T09:28:22.619Z,24.60
2018-09-17T09:30:52.273Z,24.40
2018-09-17T09:33:21.722Z,24.40
2018-09-17T09:35:51.234Z,24.60
2018-09-17T09:38:20.816Z,25.20
2018-09-17T09:40:50.563Z,24.80
2018-09-17T09:43:20.229Z,23.80
2018-09-17T09:45:49.724Z,24.30
2018-09-17T09:48:20.268Z,23.70
2018-09-17T09:50:49.992Z,23.80
2018-09-17T09:53:19.745Z,24.60
2018-09-17T09:55:49.316Z,24.30
2018-09-17T09:58:18.882Z,25.80
2018-09-17T10:00:53.747Z,25.20
2018-09-17T10:03:29.200Z,25.10
2018-09-17T10:05:59.492Z,25.40
2018-09-17T10:08:29.816Z,25.80
2018-09-17T10:11:05.255Z,26.30
2018-09-17T10:13:40.046Z,26.30
2018-09-17T10:16:14.678Z,26.20
2018-09-17T10:18:49.726Z,26.10
2018-09-17T10:21:19.532Z,26.30
2018-09-17T10:23:49.437Z,26.40
2018-09-17T10:26:19.827Z,26.40
2018-09-17T10:28:49.500Z,26.00
2018-09-17T10:31:19.108Z,26.10
2018-09-17T10:33:48.772Z,26.20
2018-09-17T10:36:18.345Z,26.10
2018-09-17T10:38:47.961Z,25.80
2018-09-17T10:41:17.646Z,25.70
2018-09-17T10:43:47.294Z,26.10
2018-09-17T10:46:17.237Z,25.50
2018-09-17T10:48:46.901Z,25.80
2018-09-17T10:51:19.872Z,25.90
2018-09-17T10:53:49.388Z,25.80
2018-09-17T10:56:19.026Z,27.10
2018-09-17T10:58:49.565Z,26.80
2018-09-17T11:01:19.492Z,26.40
2018-09-17T11:03:49.149Z,26.40
2018-09-17T11:06:18.881Z,27.30
2018-09-17T11:08:48.690Z,26.40
2018-09-17T11:11:18.399Z,26.40
2018-09-17T11:13:48.225Z,26.60
2018-09-17T11:16:18.451Z,26.80
2018-09-17T11:18:48.557Z,27.20
2018-09-17T11:21:18.153Z,28.10
2018-09-17T11:23:47.964Z,28.30
2018-09-17T11:26:17.457Z,28.00
2018-09-17T11:28:47.004Z,28.10
2018-09-17T11:31:16.679Z,27.60
2018-09-17T11:33:46.509Z,27.60
2018-09-17T11:36:16.184Z,28.20
2018-09-17T11:38:45.760Z,26.90
2018-09-17T11:41:16.661Z,27.10
2018-09-17T11:43:46.169Z,27.60
2018-09-17T11:46:15.879Z,27.00
2018-09-17T11:48:45.492Z,26.70
2018-09-17T11:51:14.953Z,27.00
2018-09-17T11:53:44.815Z,27.10
2018-09-17T11:56:14.615Z,28.10
2018-09-17T11:58:44.171Z,29.40
2018-09-17T12:01:18.816Z,32.00
2018-09-17T12:03:53.995Z,33.40
2018-09-17T12:06:28.907Z,35.00
2018-09-17T12:08:58.532Z,36.20
2018-09-17T12:11:28.426Z,37.00
2018-09-17T12:13:58.300Z,38.10
2018-09-17T12:16:28.146Z,38.90
2018-09-17T12:18:57.675Z,38.60
2018-09-17T12:21:27.381Z,39.70
2018-09-17T12:23:58.042Z,39.90
2018-09-17T12:26:27.949Z,39.40
2018-09-17T12:28:57.978Z,39.30
2018-09-17T12:31:28.005Z,37.20
2018-09-17T12:33:58.875Z,35.70
2018-09-17T12:36:28.513Z,37.20
2018-09-17T12:38:58.817Z,38.10
2018-09-17T12:41:29.278Z,38.00
2018-09-17T12:43:58.967Z,36.10
2018-09-17T12:46:28.480Z,36.40
2018-09-17T12:48:58.228Z,37.50
2018-09-17T12:51:27.818Z,36.50
2018-09-17T12:53:57.644Z,35.70
2018-09-17T12:56:27.643Z,35.20
2018-09-17T12:58:57.205Z,36.30
2018-09-17T13:01:26.905Z,35.60
2018-09-17T13:03:56.491Z,36.70
2018-09-17T13:06:26.079Z,37.20
2018-09-17T13:08:55.821Z,36.30
2018-09-17T13:11:25.540Z,36.20
2018-09-17T13:13:56.321Z,36.90
2018-09-17T13:16:25.976Z,37.70
2018-09-17T13:18:55.740Z,36.30
2018-09-17T13:21:25.527Z,36.10
2018-09-17T13:23:55.337Z,36.90
2018-09-17T13:26:25.256Z,36.80
2018-09-17T13:28:55.091Z,37.30
2018-09-17T13:31:24.756Z,37.30
2018-09-17T13:33:54.496Z,37.50
2018-09-17T13:36:24.128Z,37.70
2018-09-17T13:38:53.737Z,38.40
2018-09-17T13:41:23.610Z,38.20
2018-09-17T13:43:53.945Z,37.10
2018-09-17T13:46:23.748Z,36.60
2018-09-17T13:48:53.329Z,37.90
2018-09-17T13:51:23.291Z,36.90
2018-09-17T13:53:52.819Z,37.50
2018-09-17T13:56:22.567Z,37.30
2018-09-17T13:58:52.248Z,37.40
2018-09-17T14:01:22.386Z,37.20
2018-09-17T14:03:51.935Z,37.60
2018-09-17T14:06:21.666Z,36.90
2018-09-17T14:08:51.302Z,36.80
2018-09-17T14:11:20.925Z,37.00
2018-09-17T14:13:50.588Z,37.10
2018-09-17T14:16:25.526Z,37.40
2018-09-17T14:18:55.597Z,37.70
2018-09-17T14:21:25.350Z,37.70
2018-09-17T14:23:54.959Z,38.30
2018-09-17T14:26:24.851Z,37.20
2018-09-17T14:28:54.390Z,36.60
2018-09-17T14:31:29.406Z,37.00
2018-09-17T14:33:59.129Z,37.00
2018-09-17T14:36:28.858Z,36.80
2018-09-17T14:38:58.497Z,36.90
2018-09-17T14:41:28.200Z,36.70
2018-09-17T14:43:57.943Z,37.80
2018-09-17T14:46:28.131Z,36.70
2018-09-17T14:48:57.680Z,36.40
2018-09-17T14:51:27.339Z,36.80
2018-09-17T14:53:57.291Z,36.60
2018-09-17T14:56:26.854Z,36.60
2018-09-17T14:58:56.416Z,37.20
2018-09-17T15:01:26.100Z,37.00
2018-09-17T15:03:55.549Z,37.50
2018-09-17T15:06:25.261Z,38.10
2018-09-17T15:08:55.142Z,38.80
2018-09-17T15:11:24.797Z,37.20
2018-09-17T15:13:54.635Z,38.00
2018-09-17T15:16:24.267Z,40.10
2018-09-17T15:18:53.789Z,40.20
2018-09-17T15:21:23.601Z,40.40
2018-09-17T15:23:53.310Z,39.90
2018-09-17T15:26:23.114Z,40.70
2018-09-17T15:28:52.530Z,41.30
2018-09-17T15:31:22.458Z,38.20
2018-09-17T15:33:52.066Z,39.10
2018-09-17T15:36:21.570Z,39.80
2018-09-17T15:38:51.269Z,38.00
2018-09-17T15:41:21.024Z,37.50
2018-09-17T15:43:50.503Z,39.30
2018-09-17T15:46:20.201Z,41.10
2018-09-17T15:48:50.216Z,44.60
2018-09-17T15:51:20.026Z,45.10
2018-09-17T15:53:49.829Z,44.70
2018-09-17T15:56:19.789Z,45.60
2018-09-17T15:58:49.478Z,45.60
2018-09-17T16:01:19.585Z,45.80
2018-09-17T16:03:49.398Z,47.00
2018-09-17T16:06:20.546Z,47.30
2018-09-17T16:08:50.376Z,48.60
2018-09-17T16:11:20.094Z,48.80
2018-09-17T16:13:49.689Z,48.40
2018-09-17T16:16:19.419Z,49.70
2018-09-17T16:18:49.122Z,49.10
2018-09-17T16:21:19.034Z,50.10
2018-09-17T16:23:48.877Z,50.70
2018-09-17T16:26:19.462Z,51.50
2018-09-17T16:28:49.170Z,51.70
2018-09-17T16:31:18.992Z,52.10
2018-09-17T16:33:48.708Z,52.80
2018-09-17T16:36:18.329Z,53.10
2018-09-17T16:38:48.044Z,54.00
2018-09-17T16:41:17.723Z,54.30
2018-09-17T16:43:47.301Z,54.50
2018-09-17T16:46:17.769Z,55.10
2018-09-17T16:48:47.570Z,55.80
2018-09-17T16:51:17.194Z,56.40
2018-09-17T16:53:47.021Z,56.50
2018-09-17T16:56:16.721Z,56.50
2018-09-17T16:58:46.534Z,57.20
2018-09-17T17:01:16.352Z,57.30
2018-09-17T17:03:46.298Z,57.50
2018-09-17T17:06:16.055Z,58.00
2018-09-17T17:08:45.655Z,58.60
2018-09-17T17:11:15.440Z,58.90
2018-09-17T17:13:45.329Z,59.00
2018-09-17T17:16:15.141Z,59.30
2018-09-17T17:18:45.002Z,59.80
2018-09-17T17:21:14.621Z,60.40
2018-09-17T17:23:44.286Z,60.90
2018-09-17T17:26:13.789Z,61.60
2018-09-17T17:28:43.701Z,62.00
2018-09-17T17:31:13.353Z,63.10
2018-09-17T17:33:43.259Z,64.00
2018-09-17T17:36:13.578Z,64.50
2018-09-17T17:38:43.189Z,65.60
2018-09-17T17:41:12.905Z,66.00
2018-09-17T17:43:42.573Z,66.30
2018-09-17T17:46:12.327Z,67.20
2018-09-17T17:48:42.068Z,67.60
2018-09-17T17:51:11.637Z,68.90
2018-09-17T17:53:41.293Z,69.10
2018-09-17T17:56:10.935Z,70.60
2018-09-17T17:58:40.688Z,71.10
2018-09-17T18:01:10.966Z,72.40
2018-09-17T18:03:40.550Z,73.00
2018-09-17T18:06:10.334Z,73.60
2018-09-17T18:08:40.026Z,73.90
2018-09-17T18:11:10.030Z,75.20
2018-09-17T18:13:39.667Z,76.00
2018-09-17T18:16:09.478Z,76.80
2018-09-17T18:18:39.206Z,77.50
2018-09-17T18:21:08.923Z,77.70
2018-09-17T18:23:38.749Z,78.10
2018-09-17T18:26:08.528Z,78.60
2018-09-17T18:28:38.273Z,78.90
2018-09-17T18:31:07.880Z,79.40
2018-09-17T18:33:37.652Z,79.80
2018-09-17T18:36:07.272Z,80.30
2018-09-17T18:38:39.895Z,80.80
2018-09-17T18:41:09.633Z,81.10
2018-09-17T18:43:39.243Z,81.60
2018-09-17T18:46:08.979Z,82.20
2018-09-17T18:48:38.676Z,82.60
2018-09-17T18:51:08.876Z,82.80
2018-09-17T18:53:39.039Z,83.30
2018-09-17T18:56:08.983Z,83.30
2018-09-17T18:58:38.664Z,84.00
2018-09-17T19:01:08.255Z,85.20
2018-09-17T19:03:37.897Z,84.50
2018-09-17T19:06:08.066Z,84.80
2018-09-17T19:08:37.679Z,84.80
2018-09-17T19:11:07.818Z,85.30
2018-09-17T19:13:37.549Z,85.70
2018-09-17T19:16:07.906Z,86.10
2018-09-17T19:18:37.739Z,86.40
2018-09-17T19:21:07.840Z,87.40
2018-09-17T19:23:42.722Z,87.20
2018-09-17T19:26:12.458Z,87.30
2018-09-17T19:28:47.466Z,87.70
2018-09-17T19:31:17.285Z,88.00
2018-09-17T19:33:46.965Z,88.90
2018-09-17T19:36:16.674Z,88.30
2018-09-17T19:38:51.621Z,88.40
2018-09-17T19:41:21.366Z,88.60
2018-09-17T19:43:50.994Z,89.20
2018-09-17T19:46:20.730Z,90.10
2018-09-17T19:48:50.335Z,89.40
2018-09-17T19:51:25.701Z,89.60
2018-09-17T19:53:55.342Z,89.80
2018-09-17T19:56:25.152Z,89.70
2018-09-17T19:58:59.675Z,90.10
2018-09-17T20:01:29.355Z,90.30
2018-09-17T20:04:03.021Z,90.90
2018-09-17T20:06:32.864Z,90.60
2018-09-17T20:09:02.565Z,90.80
2018-09-17T20:11:32.904Z,90.70
2018-09-17T20:14:02.623Z,90.90
2018-09-17T20:16:32.347Z,91.10
2018-09-17T20:19:02.416Z,91.20
2018-09-17T20:21:32.148Z,91.20
2018-09-17T20:24:01.740Z,91.40
2018-09-17T20:26:31.486Z,91.50
2018-09-17T20:29:01.213Z,91.70
2018-09-17T20:31:30.710Z,91.80
2018-09-17T20:34:01.165Z,91.90
2018-09-17T20:36:31.101Z,92.00
2018-09-17T20:39:00.880Z,92.20
2018-09-17T20:41:31.645Z,92.30
2018-09-17T20:44:01.482Z,92.50
2018-09-17T20:46:31.317Z,92.60
2018-09-17T20:49:01.040Z,92.80
2018-09-17T20:51:30.818Z,92.80
2018-09-17T20:54:01.122Z,93.10
2018-09-17T20:56:31.203Z,93.10
2018-09-17T20:59:00.988Z,93.20
2018-09-17T21:01:30.785Z,93.20
2018-09-17T21:04:00.518Z,93.30
2018-09-17T21:06:30.119Z,93.40
2018-09-17T21:08:59.838Z,93.20
2018-09-17T21:11:29.437Z,93.50
2018-09-17T21:13:59.055Z,93.50
2018-09-17T21:16:29.233Z,93.80
2018-09-17T21:18:59.575Z,93.90
2018-09-17T21:21:29.360Z,93.90
2018-09-17T21:23:59.109Z,94.10
2018-09-17T21:26:28.980Z,94.00
2018-09-17T21:28:59.784Z,94.10
2018-09-17T21:31:29.448Z,94.50
2018-09-17T21:33:59.317Z,94.50
2018-09-17T21:36:29.174Z,94.30
2018-09-17T21:38:58.896Z,94.40
2018-09-17T21:41:28.611Z,94.50
2018-09-17T21:43:58.537Z,94.30
2018-09-17T21:46:28.307Z,94.40
2018-09-17T21:48:58.502Z,94.40
2018-09-17T21:51:28.432Z,94.70
2018-09-17T21:53:58.035Z,94.60
2018-09-17T21:56:27.929Z,94.50
2018-09-17T21:58:57.830Z,94.50
2018-09-17T22:01:27.962Z,94.60
2018-09-17T22:03:57.652Z,94.50
2018-09-17T22:06:27.261Z,94.70
2018-09-17T22:08:56.845Z,94.50
2018-09-17T22:11:26.855Z,94.50
2018-09-17T22:13:56.565Z,94.40
2018-09-17T22:16:26.283Z,94.40
2018-09-17T22:18:55.985Z,94.40
2018-09-17T22:21:25.809Z,94.40
2018-09-17T22:23:56.122Z,94.40
2018-09-17T22:26:25.618Z,94.30
2018-09-17T22:28:55.487Z,94.10
2018-09-17T22:31:25.179Z,94.10
2018-09-17T22:33:55.362Z,94.50
2018-09-17T22:36:25.207Z,94.30
2018-09-17T22:38:54.796Z,94.20
2018-09-17T22:41:24.727Z,94.20
2018-09-17T22:43:54.847Z,94.30
2018-09-17T22:46:24.685Z,94.80
2018-09-17T22:48:54.397Z,94.70
2018-09-17T22:51:23.943Z,94.40
2018-09-17T22:53:53.585Z,94.40
2018-09-17T22:56:23.277Z,94.50
2018-09-17T22:58:52.880Z,94.80
2018-09-17T23:01:22.605Z,94.70
2018-09-17T23:03:52.325Z,94.50
2018-09-17T23:06:22.079Z,94.40
2018-09-17T23:08:51.721Z,94.60
2018-09-17T23:11:21.338Z,94.60
2018-09-17T23:13:51.053Z,94.40
2018-09-17T23:16:20.914Z,94.60
2018-09-17T23:18:50.665Z,95.00
2018-09-17T23:21:20.317Z,95.10
2018-09-17T23:23:49.802Z,95.00
2018-09-17T23:26:19.535Z,94.80
2018-09-17T23:28:49.217Z,94.90
2018-09-17T23:31:19.314Z,94.90
2018-09-17T23:33:48.987Z,94.80
2018-09-17T23:36:19.565Z,94.90
2018-09-17T23:38:49.043Z,94.90
2018-09-17T23:41:18.720Z,95.10
2018-09-17T23:43:48.940Z,95.20
2018-09-17T23:46:18.699Z,95.10
2018-09-17T23:48:48.167Z,95.00
2018-09-17T23:51:18.620Z,95.20
2018-09-17T23:53:49.063Z,95.30
2018-09-17T23:56:18.604Z,95.20
2018-09-17T23:58:48.586Z,95.20
